Ackley, Iowa
Current Conditions -  °F | °C
As of 1:15 PM on Saturday 25 Oct 2014 (Local Time) from KIFA Reporting Station
Clear Clear  
Wind Chill: 66°   Ceiling: Unl
Heat Index: 66°   Visibility: 10mi
Dew Point: 35°   Wind: 12mph
Humidity: 32%   Direction: 340°NNW
Pressure: 30.1"   Gusts: 16mph
Location:  42.55°N, 93.05°W
Report Text: KIFA 251815Z AUTO 34010G14KT 10SM CLR 19/02 A3010 RMK AO2 T01900018
Loading
Personal Weather Stations






























Interactive Weather Map
Tropical Storm Tracking
New forecast layout! Learn more

10-Day Weather Forecast

Advertisements
Track Severe Weather on mobile